sensor_id;sensor_type;location;lat;lon;timestamp;P1;durP1;ratioP1;P2;durP2;ratioP2
18520;SDS011;9390;51.244;6.982;2024-03-23T00:56:24;10.68;;;3.15;;
18520;SDS011;9390;51.244;6.982;2024-03-23T00:58:54;13.32;;;4.53;;
18520;SDS011;9390;51.244;6.982;2024-03-23T01:01:25;29.42;;;5.15;;
18520;SDS011;9390;51.244;6.982;2024-03-23T01:03:56;23.02;;;5.10;;
18520;SDS011;9390;51.244;6.982;2024-03-23T01:06:27;16.02;;;3.13;;
18520;SDS011;9390;51.244;6.982;2024-03-23T01:08:59;17.98;;;4.78;;
18520;SDS011;9390;51.244;6.982;2024-03-23T01:11:30;14.73;;;4.28;;
18520;SDS011;9390;51.244;6.982;2024-03-23T01:14:01;16.08;;;4.03;;
18520;SDS011;9390;51.244;6.982;2024-03-23T01:16:32;22.20;;;4.10;;
18520;SDS011;9390;51.244;6.982;2024-03-23T01:19:03;20.17;;;4.38;;
18520;SDS011;9390;51.244;6.982;2024-03-23T01:21:34;18.00;;;3.90;;
18520;SDS011;9390;51.244;6.982;2024-03-23T01:24:06;14.68;;;4.43;;
18520;SDS011;9390;51.244;6.982;2024-03-23T01:26:40;19.30;;;5.20;;
18520;SDS011;9390;51.244;6.982;2024-03-23T01:29:10;15.23;;;4.38;;
18520;SDS011;9390;51.244;6.982;2024-03-23T01:31:42;26.25;;;6.75;;
18520;SDS011;9390;51.244;6.982;2024-03-23T01:34:12;12.43;;;3.75;;
18520;SDS011;9390;51.244;6.982;2024-03-23T01:36:44;20.70;;;4.13;;
18520;SDS011;9390;51.244;6.982;2024-03-23T01:39:17;12.27;;;4.72;;
18520;SDS011;9390;51.244;6.982;2024-03-23T01:41:49;15.35;;;4.10;;
18520;SDS011;9390;51.244;6.982;2024-03-23T01:44:20;13.82;;;4.13;;
18520;SDS011;9390;51.244;6.982;2024-03-23T01:46:51;16.83;;;4.43;;
18520;SDS011;9390;51.244;6.982;2024-03-23T01:49:22;13.48;;;4.07;;
18520;SDS011;9390;51.244;6.982;2024-03-23T01:51:53;22.77;;;3.47;;
18520;SDS011;9390;51.244;6.982;2024-03-23T01:54:25;18.98;;;2.60;;
18520;SDS011;9390;51.244;6.982;2024-03-23T01:56:57;21.70;;;2.92;;
18520;SDS011;9390;51.244;6.982;2024-03-23T01:59:27;12.93;;;2.63;;
18520;SDS011;9390;51.244;6.982;2024-03-23T02:01:59;8.05;;;2.35;;
18520;SDS011;9390;51.244;6.982;2024-03-23T02:04:29;8.88;;;2.25;;
18520;SDS011;9390;51.244;6.982;2024-03-23T02:07:00;10.20;;;3.03;;
18520;SDS011;9390;51.244;6.982;2024-03-23T02:09:32;7.90;;;2.47;;
18520;SDS011;9390;51.244;6.982;2024-03-23T02:12:04;5.78;;;2.50;;
18520;SDS011;9390;51.244;6.982;2024-03-23T02:14:35;11.77;;;2.05;;
18520;SDS011;9390;51.244;6.982;2024-03-23T02:17:06;4.57;;;2.10;;
18520;SDS011;9390;51.244;6.982;2024-03-23T02:19:37;9.07;;;2.30;;
18520;SDS011;9390;51.244;6.982;2024-03-23T02:22:09;9.03;;;1.87;;
18520;SDS011;9390;51.244;6.982;2024-03-23T02:24:41;8.32;;;2.10;;
18520;SDS011;9390;51.244;6.982;2024-03-23T02:27:13;15.38;;;2.63;;
18520;SDS011;9390;51.244;6.982;2024-03-23T02:29:44;6.65;;;2.15;;
18520;SDS011;9390;51.244;6.982;2024-03-23T02:32:15;10.18;;;2.28;;
18520;SDS011;9390;51.244;6.982;2024-03-23T02:34:45;11.13;;;3.10;;
18520;SDS011;9390;51.244;6.982;2024-03-23T02:37:17;8.73;;;2.05;;
18520;SDS011;9390;51.244;6.982;2024-03-23T02:39:48;13.50;;;2.35;;
18520;SDS011;9390;51.244;6.982;2024-03-23T02:42:20;15.02;;;3.33;;
18520;SDS011;9390;51.244;6.982;2024-03-23T02:44:50;10.05;;;1.98;;
18520;SDS011;9390;51.244;6.982;2024-03-23T02:47:22;9.02;;;2.17;;
18520;SDS011;9390;51.244;6.982;2024-03-23T02:49:52;8.88;;;2.00;;
18520;SDS011;9390;51.244;6.982;2024-03-23T02:52:24;11.43;;;2.83;;
18520;SDS011;9390;51.244;6.982;2024-03-23T02:54:56;10.93;;;2.95;;
18520;SDS011;9390;51.244;6.982;2024-03-23T02:57:27;10.07;;;3.38;;
18520;SDS011;9390;51.244;6.982;2024-03-23T02:59:57;8.35;;;2.70;;
18520;SDS011;9390;51.244;6.982;2024-03-23T03:02:29;10.45;;;2.60;;
18520;SDS011;9390;51.244;6.982;2024-03-23T03:04:59;11.85;;;3.28;;
18520;SDS011;9390;51.244;6.982;2024-03-23T03:07:31;7.53;;;2.35;;
18520;SDS011;9390;51.244;6.982;2024-03-23T03:10:03;9.77;;;2.30;;
18520;SDS011;9390;51.244;6.982;2024-03-23T03:12:36;19.80;;;2.53;;
18520;SDS011;9390;51.244;6.982;2024-03-23T03:15:07;8.88;;;2.47;;
18520;SDS011;9390;51.244;6.982;2024-03-23T03:17:39;17.25;;;3.10;;
18520;SDS011;9390;51.244;6.982;2024-03-23T03:20:09;13.38;;;3.33;;
18520;SDS011;9390;51.244;6.982;2024-03-23T03:22:43;19.75;;;2.50;;
18520;SDS011;9390;51.244;6.982;2024-03-23T03:25:15;9.27;;;2.35;;
18520;SDS011;9390;51.244;6.982;2024-03-23T03:27:46;19.85;;;2.67;;
18520;SDS011;9390;51.244;6.982;2024-03-23T03:30:17;4.80;;;1.88;;
18520;SDS011;9390;51.244;6.982;2024-03-23T03:32:49;18.50;;;2.90;;
18520;SDS011;9390;51.244;6.982;2024-03-23T03:35:19;13.25;;;2.33;;
18520;SDS011;9390;51.244;6.982;2024-03-23T03:37:50;16.15;;;2.42;;
18520;SDS011;9390;51.244;6.982;2024-03-23T03:40:22;4.93;;;1.95;;
18520;SDS011;9390;51.244;6.982;2024-03-23T03:42:54;12.43;;;3.15;;
18520;SDS011;9390;51.244;6.982;2024-03-23T03:45:25;13.10;;;3.35;;
18520;SDS011;9390;51.244;6.982;2024-03-23T03:47:56;12.73;;;3.70;;
18520;SDS011;9390;51.244;6.982;2024-03-23T03:50:27;20.10;;;3.25;;
18520;SDS011;9390;51.244;6.982;2024-03-23T03:52:58;13.98;;;3.58;;
18520;SDS011;9390;51.244;6.982;2024-03-23T03:55:30;21.30;;;3.80;;
18520;SDS011;9390;51.244;6.982;2024-03-23T03:58:02;20.90;;;3.08;;
18520;SDS011;9390;51.244;6.982;2024-03-23T04:00:32;29.52;;;3.65;;
18520;SDS011;9390;51.244;6.982;2024-03-23T04:03:04;14.25;;;2.95;;
18520;SDS011;9390;51.244;6.982;2024-03-23T04:05:35;18.52;;;3.72;;
18520;SDS011;9390;51.244;6.982;2024-03-23T04:08:07;19.83;;;3.33;;
18520;SDS011;9390;51.244;6.982;2024-03-23T04:10:38;12.27;;;3.72;;
18520;SDS011;9390;51.244;6.982;2024-03-23T04:13:10;11.57;;;2.60;;
18520;SDS011;9390;51.244;6.982;2024-03-23T04:15:41;14.93;;;2.85;;
18520;SDS011;9390;51.244;6.982;2024-03-23T04:18:13;18.88;;;3.42;;
18520;SDS011;9390;51.244;6.982;2024-03-23T04:20:44;13.05;;;2.90;;
18520;SDS011;9390;51.244;6.982;2024-03-23T04:23:15;12.18;;;2.90;;
18520;SDS011;9390;51.244;6.982;2024-03-23T04:25:47;16.77;;;2.92;;
18520;SDS011;9390;51.244;6.982;2024-03-23T04:28:18;18.08;;;3.83;;
18520;SDS011;9390;51.244;6.982;2024-03-23T04:30:49;11.82;;;2.80;;
18520;SDS011;9390;51.244;6.982;2024-03-23T04:33:20;11.13;;;3.05;;
18520;SDS011;9390;51.244;6.982;2024-03-23T04:35:51;15.82;;;3.25;;
18520;SDS011;9390;51.244;6.982;2024-03-23T04:38:22;9.15;;;3.22;;
18520;SDS011;9390;51.244;6.982;2024-03-23T04:40:56;12.98;;;3.50;;
18520;SDS011;9390;51.244;6.982;2024-03-23T04:43:27;19.95;;;3.25;;
18520;SDS011;9390;51.244;6.982;2024-03-23T04:45:59;11.23;;;3.63;;
18520;SDS011;9390;51.244;6.982;2024-03-23T04:48:31;13.00;;;3.42;;
18520;SDS011;9390;51.244;6.982;2024-03-23T04:51:02;15.43;;;3.60;;
18520;SDS011;9390;51.244;6.982;2024-03-23T04:53:34;13.20;;;3.72;;
18520;SDS011;9390;51.244;6.982;2024-03-23T04:56:07;13.90;;;4.18;;
18520;SDS011;9390;51.244;6.982;2024-03-23T04:58:39;10.90;;;3.97;;
18520;SDS011;9390;51.244;6.982;2024-03-23T05:01:10;22.90;;;3.78;;
18520;SDS011;9390;51.244;6.982;2024-03-23T05:03:42;23.63;;;4.28;;
18520;SDS011;9390;51.244;6.982;2024-03-23T05:06:13;14.85;;;3.78;;
18520;SDS011;9390;51.244;6.982;2024-03-23T05:08:44;17.48;;;3.10;;
18520;SDS011;9390;51.244;6.982;2024-03-23T05:11:17;12.23;;;3.38;;
18520;SDS011;9390;51.244;6.982;2024-03-23T05:13:47;18.35;;;3.90;;
18520;SDS011;9390;51.244;6.982;2024-03-23T05:16:19;10.55;;;3.03;;
18520;SDS011;9390;51.244;6.982;2024-03-23T05:18:49;17.20;;;3.55;;
18520;SDS011;9390;51.244;6.982;2024-03-23T05:21:21;17.48;;;3.95;;
18520;SDS011;9390;51.244;6.982;2024-03-23T05:23:51;14.27;;;3.17;;
18520;SDS011;9390;51.244;6.982;2024-03-23T05:26:24;8.57;;;2.90;;
18520;SDS011;9390;51.244;6.982;2024-03-23T05:28:54;11.93;;;3.30;;
18520;SDS011;9390;51.244;6.982;2024-03-23T05:31:26;11.48;;;3.22;;
18520;SDS011;9390;51.244;6.982;2024-03-23T05:33:57;11.60;;;3.72;;
18520;SDS011;9390;51.244;6.982;2024-03-23T05:36:29;16.85;;;3.47;;
18520;SDS011;9390;51.244;6.982;2024-03-23T05:38:59;11.77;;;3.47;;
18520;SDS011;9390;51.244;6.982;2024-03-23T05:41:32;15.05;;;3.38;;
18520;SDS011;9390;51.244;6.982;2024-03-23T05:44:03;11.77;;;3.90;;
18520;SDS011;9390;51.244;6.982;2024-03-23T05:46:35;10.52;;;3.58;;
18520;SDS011;9390;51.244;6.982;2024-03-23T05:49:05;19.15;;;3.58;;
18520;SDS011;9390;51.244;6.982;2024-03-23T05:51:36;14.90;;;4.35;;
18520;SDS011;9390;51.244;6.982;2024-03-23T05:54:07;16.35;;;4.22;;
18520;SDS011;9390;51.244;6.982;2024-03-23T05:56:40;24.70;;;5.25;;
18520;SDS011;9390;51.244;6.982;2024-03-23T05:59:10;19.60;;;3.72;;
18520;SDS011;9390;51.244;6.982;2024-03-23T06:01:41;12.38;;;3.67;;
18520;SDS011;9390;51.244;6.982;2024-03-23T06:04:12;19.02;;;3.58;;
18520;SDS011;9390;51.244;6.982;2024-03-23T06:06:43;13.15;;;4.95;;
18520;SDS011;9390;51.244;6.982;2024-03-23T06:09:14;16.83;;;4.38;;
18520;SDS011;9390;51.244;6.982;2024-03-23T06:11:46;12.07;;;3.25;;
18520;SDS011;9390;51.244;6.982;2024-03-23T06:14:18;19.02;;;4.85;;
18520;SDS011;9390;51.244;6.982;2024-03-23T06:16:49;17.20;;;4.18;;
18520;SDS011;9390;51.244;6.982;2024-03-23T06:19:20;15.00;;;4.38;;
18520;SDS011;9390;51.244;6.982;2024-03-23T06:21:51;9.57;;;3.92;;
18520;SDS011;9390;51.244;6.982;2024-03-23T06:24:22;23.27;;;4.72;;
18520;SDS011;9390;51.244;6.982;2024-03-23T06:26:55;12.77;;;3.80;;
18520;SDS011;9390;51.244;6.982;2024-03-23T06:29:26;12.48;;;4.03;;
18520;SDS011;9390;51.244;6.982;2024-03-23T06:31:57;13.32;;;4.18;;
18520;SDS011;9390;51.244;6.982;2024-03-23T06:34:28;8.95;;;3.88;;
18520;SDS011;9390;51.244;6.982;2024-03-23T06:37:00;17.23;;;5.22;;
18520;SDS011;9390;51.244;6.982;2024-03-23T06:39:30;18.23;;;5.38;;
18520;SDS011;9390;51.244;6.982;2024-03-23T06:42:03;13.60;;;5.22;;
18520;SDS011;9390;51.244;6.982;2024-03-23T06:44:34;16.88;;;5.75;;
18520;SDS011;9390;51.244;6.982;2024-03-23T06:47:06;11.23;;;5.25;;
18520;SDS011;9390;51.244;6.982;2024-03-23T06:49:36;25.08;;;4.75;;
18520;SDS011;9390;51.244;6.982;2024-03-23T06:52:08;13.48;;;4.90;;
18520;SDS011;9390;51.244;6.982;2024-03-23T06:54:38;15.85;;;4.53;;
18520;SDS011;9390;51.244;6.982;2024-03-23T06:57:11;15.65;;;5.03;;
18520;SDS011;9390;51.244;6.982;2024-03-23T06:59:42;10.77;;;4.35;;
18520;SDS011;9390;51.244;6.982;2024-03-23T07:02:13;21.13;;;5.15;;
18520;SDS011;9390;51.244;6.982;2024-03-23T07:04:44;18.08;;;5.45;;
18520;SDS011;9390;51.244;6.982;2024-03-23T07:07:16;15.73;;;6.07;;
18520;SDS011;9390;51.244;6.982;2024-03-23T07:09:46;16.45;;;6.03;;
18520;SDS011;9390;51.244;6.982;2024-03-23T07:12:19;31.52;;;6.90;;
18520;SDS011;9390;51.244;6.982;2024-03-23T07:14:51;27.23;;;6.93;;
18520;SDS011;9390;51.244;6.982;2024-03-23T07:17:22;22.35;;;6.80;;
18520;SDS011;9390;51.244;6.982;2024-03-23T07:19:52;21.75;;;6.70;;
18520;SDS011;9390;51.244;6.982;2024-03-23T07:22:24;19.63;;;7.22;;
18520;SDS011;9390;51.244;6.982;2024-03-23T07:24:54;25.80;;;6.95;;
18520;SDS011;9390;51.244;6.982;2024-03-23T07:27:27;26.35;;;6.75;;
18520;SDS011;9390;51.244;6.982;2024-03-23T07:29:57;28.35;;;7.00;;
18520;SDS011;9390;51.244;6.982;2024-03-23T07:32:29;25.98;;;7.05;;
18520;SDS011;9390;51.244;6.982;2024-03-23T07:35:01;24.95;;;7.53;;
18520;SDS011;9390;51.244;6.982;2024-03-23T07:37:34;24.85;;;6.22;;
18520;SDS011;9390;51.244;6.982;2024-03-23T07:40:05;22.92;;;7.22;;
18520;SDS011;9390;51.244;6.982;2024-03-23T07:42:38;18.08;;;6.80;;
18520;SDS011;9390;51.244;6.982;2024-03-23T07:45:09;19.45;;;6.07;;
18520;SDS011;9390;51.244;6.982;2024-03-23T07:47:40;20.48;;;6.70;;
18520;SDS011;9390;51.244;6.982;2024-03-23T07:50:11;19.05;;;6.25;;
18520;SDS011;9390;51.244;6.982;2024-03-23T07:52:43;24.00;;;5.90;;
18520;SDS011;9390;51.244;6.982;2024-03-23T07:55:13;19.27;;;6.93;;
18520;SDS011;9390;51.244;6.982;2024-03-23T07:57:46;20.30;;;7.53;;
18520;SDS011;9390;51.244;6.982;2024-03-23T08:00:17;20.15;;;6.07;;
18520;SDS011;9390;51.244;6.982;2024-03-23T08:02:50;22.63;;;5.90;;
18520;SDS011;9390;51.244;6.982;2024-03-23T08:05:21;21.88;;;6.13;;
18520;SDS011;9390;51.244;6.982;2024-03-23T08:07:52;22.88;;;5.65;;
18520;SDS011;9390;51.244;6.982;2024-03-23T08:10:23;20.85;;;5.85;;
18520;SDS011;9390;51.244;6.982;2024-03-23T08:12:55;25.85;;;6.35;;
18520;SDS011;9390;51.244;6.982;2024-03-23T08:15:26;18.92;;;5.68;;
18520;SDS011;9390;51.244;6.982;2024-03-23T08:17:57;21.17;;;6.22;;
18520;SDS011;9390;51.244;6.982;2024-03-23T08:20:27;24.20;;;5.53;;
18520;SDS011;9390;51.244;6.982;2024-03-23T08:22:59;20.52;;;6.18;;
18520;SDS011;9390;51.244;6.982;2024-03-23T08:25:30;15.00;;;5.82;;
18520;SDS011;9390;51.244;6.982;2024-03-23T08:28:03;18.93;;;5.70;;
18520;SDS011;9390;51.244;6.982;2024-03-23T08:30:34;19.38;;;5.90;;
18520;SDS011;9390;51.244;6.982;2024-03-23T08:33:06;15.45;;;4.93;;
18520;SDS011;9390;51.244;6.982;2024-03-23T08:35:36;18.02;;;5.28;;
18520;SDS011;9390;51.244;6.982;2024-03-23T08:38:08;18.13;;;5.38;;
18520;SDS011;9390;51.244;6.982;2024-03-23T08:40:38;14.30;;;4.03;;
18520;SDS011;9390;51.244;6.982;2024-03-23T08:43:11;15.80;;;4.57;;
18520;SDS011;9390;51.244;6.982;2024-03-23T08:45:41;10.68;;;3.78;;
18520;SDS011;9390;51.244;6.982;2024-03-23T08:48:13;17.48;;;4.30;;
18520;SDS011;9390;51.244;6.982;2024-03-23T08:50:43;20.58;;;4.80;;
18520;SDS011;9390;51.244;6.982;2024-03-23T08:53:14;20.60;;;4.05;;
18520;SDS011;9390;51.244;6.982;2024-03-23T08:55:52;12.93;;;4.28;;
18520;SDS011;9390;51.244;6.982;2024-03-23T08:58:26;16.98;;;4.43;;
18520;SDS011;9390;51.244;6.982;2024-03-23T09:01:02;13.20;;;4.28;;
18520;SDS011;9390;51.244;6.982;2024-03-23T09:03:34;13.68;;;3.85;;
18520;SDS011;9390;51.244;6.982;2024-03-23T09:06:06;14.55;;;3.85;;
18520;SDS011;9390;51.244;6.982;2024-03-23T09:08:38;12.23;;;2.50;;
18520;SDS011;9390;51.244;6.982;2024-03-23T09:11:10;8.95;;;1.70;;
18520;SDS011;9390;51.244;6.982;2024-03-23T09:13:44;4.25;;;1.70;;
18520;SDS011;9390;51.244;6.982;2024-03-23T09:16:14;8.00;;;1.80;;
18520;SDS011;9390;51.244;6.982;2024-03-23T09:18:46;4.25;;;1.67;;
18520;SDS011;9390;51.244;6.982;2024-03-23T09:21:16;4.78;;;1.90;;
18520;SDS011;9390;51.244;6.982;2024-03-23T09:23:47;5.95;;;2.17;;
18520;SDS011;9390;51.244;6.982;2024-03-23T09:26:19;7.53;;;2.15;;
18520;SDS011;9390;51.244;6.982;2024-03-23T09:28:52;5.80;;;2.13;;
18520;SDS011;9390;51.244;6.982;2024-03-23T09:31:22;17.42;;;3.08;;
18520;SDS011;9390;51.244;6.982;2024-03-23T09:33:53;6.07;;;2.55;;
18520;SDS011;9390;51.244;6.982;2024-03-23T09:36:24;8.88;;;2.60;;
18520;SDS011;9390;51.244;6.982;2024-03-23T09:38:55;7.43;;;2.55;;
18520;SDS011;9390;51.244;6.982;2024-03-23T09:41:26;8.75;;;3.05;;
18520;SDS011;9390;51.244;6.982;2024-03-23T09:43:58;15.40;;;4.25;;
18520;SDS011;9390;51.244;6.982;2024-03-23T09:46:29;14.57;;;4.55;;
18520;SDS011;9390;51.244;6.982;2024-03-23T09:49:04;10.52;;;4.38;;
18520;SDS011;9390;51.244;6.982;2024-03-23T09:51:36;7.53;;;3.72;;
18520;SDS011;9390;51.244;6.982;2024-03-23T09:54:07;8.98;;;3.72;;
18520;SDS011;9390;51.244;6.982;2024-03-23T09:56:38;10.65;;;4.38;;
18520;SDS011;9390;51.244;6.982;2024-03-23T09:59:11;13.57;;;4.18;;
18520;SDS011;9390;51.244;6.982;2024-03-23T10:01:41;9.10;;;3.65;;
18520;SDS011;9390;51.244;6.982;2024-03-23T10:07:10;9.63;;;3.47;;
18520;SDS011;9390;51.244;6.982;2024-03-23T10:09:42;10.25;;;3.80;;
18520;SDS011;9390;51.244;6.982;2024-03-23T10:12:13;10.60;;;3.38;;
18520;SDS011;9390;51.244;6.982;2024-03-23T10:14:48;14.18;;;4.10;;
18520;SDS011;9390;51.244;6.982;2024-03-23T10:17:20;11.40;;;3.63;;
18520;SDS011;9390;51.244;6.982;2024-03-23T10:19:55;9.77;;;3.70;;
18520;SDS011;9390;51.244;6.982;2024-03-23T10:22:26;9.07;;;3.72;;
18520;SDS011;9390;51.244;6.982;2024-03-23T10:25:06;18.25;;;4.32;;
18520;SDS011;9390;51.244;6.982;2024-03-23T10:27:38;9.82;;;3.80;;
18520;SDS011;9390;51.244;6.982;2024-03-23T10:30:11;7.07;;;2.85;;
18520;SDS011;9390;51.244;6.982;2024-03-23T10:32:43;9.27;;;3.00;;
18520;SDS011;9390;51.244;6.982;2024-03-23T10:35:16;8.98;;;3.05;;
18520;SDS011;9390;51.244;6.982;2024-03-23T10:37:49;7.82;;;3.17;;
18520;SDS011;9390;51.244;6.982;2024-03-23T10:40:20;7.78;;;2.50;;
18520;SDS011;9390;51.244;6.982;2024-03-23T10:42:51;9.55;;;2.60;;
18520;SDS011;9390;51.244;6.982;2024-03-23T10:45:25;7.03;;;2.20;;
18520;SDS011;9390;51.244;6.982;2024-03-23T10:47:55;6.15;;;1.60;;
18520;SDS011;9390;51.244;6.982;2024-03-23T10:50:27;4.85;;;1.38;;
18520;SDS011;9390;51.244;6.982;2024-03-23T10:52:57;3.17;;;1.52;;
18520;SDS011;9390;51.244;6.982;2024-03-23T10:55:30;5.53;;;1.23;;
18520;SDS011;9390;51.244;6.982;2024-03-23T10:58:00;2.17;;;1.30;;
18520;SDS011;9390;51.244;6.982;2024-03-23T11:00:34;8.30;;;1.80;;
18520;SDS011;9390;51.244;6.982;2024-03-23T11:06:04;3.55;;;1.35;;
18520;SDS011;9390;51.244;6.982;2024-03-23T11:08:35;2.10;;;1.30;;
18520;SDS011;9390;51.244;6.982;2024-03-23T11:11:14;4.15;;;1.33;;
18520;SDS011;9390;51.244;6.982;2024-03-23T11:13:46;3.17;;;1.60;;
18520;SDS011;9390;51.244;6.982;2024-03-23T11:16:23;2.33;;;1.20;;
18520;SDS011;9390;51.244;6.982;2024-03-23T11:18:54;6.07;;;2.00;;
18520;SDS011;9390;51.244;6.982;2024-03-23T11:21:53;4.10;;;1.38;;
18520;SDS011;9390;51.244;6.982;2024-03-23T11:24:24;2.65;;;1.50;;
18520;SDS011;9390;51.244;6.982;2024-03-23T11:26:56;1.30;;;1.08;;
18520;SDS011;9390;51.244;6.982;2024-03-23T11:29:30;7.63;;;1.77;;
18520;SDS011;9390;51.244;6.982;2024-03-23T11:32:03;3.10;;;1.63;;
18520;SDS011;9390;51.244;6.982;2024-03-23T11:34:34;12.02;;;1.88;;
18520;SDS011;9390;51.244;6.982;2024-03-23T11:37:06;2.70;;;1.30;;
18520;SDS011;9390;51.244;6.982;2024-03-23T11:39:36;9.02;;;2.08;;
18520;SDS011;9390;51.244;6.982;2024-03-23T11:42:08;3.42;;;1.40;;
18520;SDS011;9390;51.244;6.982;2024-03-23T11:44:38;13.70;;;2.13;;
18520;SDS011;9390;51.244;6.982;2024-03-23T11:47:11;4.85;;;2.05;;
18520;SDS011;9390;51.244;6.982;2024-03-23T11:49:42;5.78;;;1.92;;
18520;SDS011;9390;51.244;6.982;2024-03-23T11:52:13;5.78;;;2.10;;
18520;SDS011;9390;51.244;6.982;2024-03-23T11:54:46;12.10;;;3.08;;
18520;SDS011;9390;51.244;6.982;2024-03-23T11:57:17;8.98;;;2.33;;
18520;SDS011;9390;51.244;6.982;2024-03-23T11:59:48;12.38;;;2.85;;
18520;SDS011;9390;51.244;6.982;2024-03-23T12:02:20;11.82;;;2.92;;
18520;SDS011;9390;51.244;6.982;2024-03-23T12:04:51;6.75;;;2.67;;
18520;SDS011;9390;51.244;6.982;2024-03-23T12:07:22;9.05;;;1.77;;
18520;SDS011;9390;51.244;6.982;2024-03-23T12:10:02;4.47;;;1.50;;
18520;SDS011;9390;51.244;6.982;2024-03-23T12:12:36;2.53;;;1.23;;
18520;SDS011;9390;51.244;6.982;2024-03-23T12:15:07;2.83;;;1.27;;
18520;SDS011;9390;51.244;6.982;2024-03-23T12:17:40;3.60;;;1.55;;
18520;SDS011;9390;51.244;6.982;2024-03-23T12:20:11;2.90;;;1.40;;
18520;SDS011;9390;51.244;6.982;2024-03-23T12:22:42;1.42;;;1.17;;
18520;SDS011;9390;51.244;6.982;2024-03-23T12:25:12;3.88;;;2.00;;
18520;SDS011;9390;51.244;6.982;2024-03-23T12:27:44;6.72;;;1.58;;
18520;SDS011;9390;51.244;6.982;2024-03-23T12:30:14;2.30;;;1.25;;
18520;SDS011;9390;51.244;6.982;2024-03-23T12:32:47;1.42;;;0.88;;
18520;SDS011;9390;51.244;6.982;2024-03-23T12:35:17;1.63;;;1.02;;
18520;SDS011;9390;51.244;6.982;2024-03-23T12:37:49;4.63;;;1.17;;
18520;SDS011;9390;51.244;6.982;2024-03-23T12:40:19;4.70;;;1.40;;
18520;SDS011;9390;51.244;6.982;2024-03-23T12:42:51;4.75;;;1.90;;
18520;SDS011;9390;51.244;6.982;2024-03-23T12:45:21;3.90;;;2.08;;
18520;SDS011;9390;51.244;6.982;2024-03-23T12:47:54;4.75;;;2.25;;
18520;SDS011;9390;51.244;6.982;2024-03-23T12:50:24;7.45;;;2.28;;
18520;SDS011;9390;51.244;6.982;2024-03-23T12:52:56;4.32;;;1.77;;
18520;SDS011;9390;51.244;6.982;2024-03-23T12:55:26;5.05;;;1.90;;
18520;SDS011;9390;51.244;6.982;2024-03-23T12:57:58;4.70;;;1.73;;
18520;SDS011;9390;51.244;6.982;2024-03-23T13:00:29;3.83;;;1.55;;
18520;SDS011;9390;51.244;6.982;2024-03-23T13:03:01;4.05;;;1.60;;
18520;SDS011;9390;51.244;6.982;2024-03-23T13:05:34;5.82;;;1.63;;
18520;SDS011;9390;51.244;6.982;2024-03-23T13:08:05;3.72;;;1.35;;
18520;SDS011;9390;51.244;6.982;2024-03-23T13:10:36;4.70;;;1.40;;
18520;SDS011;9390;51.244;6.982;2024-03-23T13:13:07;3.63;;;1.30;;
18520;SDS011;9390;51.244;6.982;2024-03-23T13:15:38;3.25;;;1.33;;
18520;SDS011;9390;51.244;6.982;2024-03-23T13:18:10;3.50;;;1.73;;
18520;SDS011;9390;51.244;6.982;2024-03-23T13:20:41;5.63;;;1.30;;
18520;SDS011;9390;51.244;6.982;2024-03-23T13:23:12;4.38;;;1.83;;
18520;SDS011;9390;51.244;6.982;2024-03-23T13:25:49;4.80;;;1.88;;
18520;SDS011;9390;51.244;6.982;2024-03-23T13:28:22;4.57;;;1.48;;
18520;SDS011;9390;51.244;6.982;2024-03-23T13:30:53;5.53;;;1.52;;
18520;SDS011;9390;51.244;6.982;2024-03-23T13:33:26;5.50;;;1.08;;
18520;SDS011;9390;51.244;6.982;2024-03-23T13:35:57;3.63;;;1.00;;
18520;SDS011;9390;51.244;6.982;2024-03-23T13:38:28;1.20;;;0.80;;
18520;SDS011;9390;51.244;6.982;2024-03-23T13:40:59;3.50;;;0.88;;
18520;SDS011;9390;51.244;6.982;2024-03-23T13:43:31;2.70;;;0.95;;
18520;SDS011;9390;51.244;6.982;2024-03-23T13:46:02;3.38;;;1.35;;
18520;SDS011;9390;51.244;6.982;2024-03-23T13:48:35;3.85;;;1.00;;
18520;SDS011;9390;51.244;6.982;2024-03-23T13:51:05;1.58;;;0.80;;
18520;SDS011;9390;51.244;6.982;2024-03-23T13:53:36;4.30;;;1.02;;
18520;SDS011;9390;51.244;6.982;2024-03-23T13:56:07;6.50;;;1.17;;
18520;SDS011;9390;51.244;6.982;2024-03-23T13:58:38;3.92;;;1.25;;
18520;SDS011;9390;51.244;6.982;2024-03-23T14:01:09;6.72;;;1.25;;
18520;SDS011;9390;51.244;6.982;2024-03-23T14:03:42;6.55;;;1.50;;
18520;SDS011;9390;51.244;6.982;2024-03-23T14:06:12;2.88;;;1.15;;
18520;SDS011;9390;51.244;6.982;2024-03-23T14:08:44;2.85;;;1.27;;
18520;SDS011;9390;51.244;6.982;2024-03-23T14:11:15;3.75;;;1.33;;
18520;SDS011;9390;51.244;6.982;2024-03-23T14:13:46;2.63;;;1.10;;
18520;SDS011;9390;51.244;6.982;2024-03-23T14:16:16;3.60;;;1.15;;
18520;SDS011;9390;51.244;6.982;2024-03-23T14:18:50;2.65;;;1.20;;
18520;SDS011;9390;51.244;6.982;2024-03-23T14:21:21;4.80;;;1.60;;
18520;SDS011;9390;51.244;6.982;2024-03-23T14:23:52;3.50;;;1.52;;
18520;SDS011;9390;51.244;6.982;2024-03-23T14:26:23;2.88;;;1.35;;
18520;SDS011;9390;51.244;6.982;2024-03-23T14:28:55;5.88;;;1.48;;
18520;SDS011;9390;51.244;6.982;2024-03-23T14:31:25;8.30;;;2.03;;
18520;SDS011;9390;51.244;6.982;2024-03-23T14:33:58;2.65;;;1.58;;
18520;SDS011;9390;51.244;6.982;2024-03-23T14:36:29;6.00;;;1.83;;
18520;SDS011;9390;51.244;6.982;2024-03-23T14:39:00;4.22;;;1.63;;
18520;SDS011;9390;51.244;6.982;2024-03-23T14:41:31;8.05;;;1.70;;
18520;SDS011;9390;51.244;6.982;2024-03-23T14:44:02;7.30;;;2.00;;
18520;SDS011;9390;51.244;6.982;2024-03-23T14:46:33;6.47;;;1.95;;
18520;SDS011;9390;51.244;6.982;2024-03-23T14:49:05;5.22;;;1.60;;
18520;SDS011;9390;51.244;6.982;2024-03-23T14:51:36;4.63;;;1.40;;
18520;SDS011;9390;51.244;6.982;2024-03-23T14:54:07;3.63;;;1.35;;
18520;SDS011;9390;51.244;6.982;2024-03-23T14:56:38;3.00;;;1.35;;
18520;SDS011;9390;51.244;6.982;2024-03-23T14:59:09;2.42;;;1.00;;
18520;SDS011;9390;51.244;6.982;2024-03-23T15:01:39;0.98;;;0.80;;
18520;SDS011;9390;51.244;6.982;2024-03-23T15:04:12;5.05;;;1.00;;
18520;SDS011;9390;51.244;6.982;2024-03-23T15:06:43;2.45;;;0.95;;
18520;SDS011;9390;51.244;6.982;2024-03-23T15:11:47;2.63;;;1.17;;
18520;SDS011;9390;51.244;6.982;2024-03-23T15:14:18;3.63;;;1.10;;
18520;SDS011;9390;51.244;6.982;2024-03-23T15:16:50;2.92;;;1.23;;
18520;SDS011;9390;51.244;6.982;2024-03-23T15:19:24;2.75;;;1.45;;
18520;SDS011;9390;51.244;6.982;2024-03-23T15:21:54;2.83;;;1.13;;
18520;SDS011;9390;51.244;6.982;2024-03-23T15:24:26;6.27;;;1.27;;
18520;SDS011;9390;51.244;6.982;2024-03-23T15:26:57;3.03;;;1.50;;
18520;SDS011;9390;51.244;6.982;2024-03-23T15:29:28;3.03;;;1.40;;
18520;SDS011;9390;51.244;6.982;2024-03-23T15:31:59;5.70;;;1.27;;
18520;SDS011;9390;51.244;6.982;2024-03-23T15:34:31;6.78;;;2.10;;
18520;SDS011;9390;51.244;6.982;2024-03-23T15:37:02;4.93;;;1.58;;
18520;SDS011;9390;51.244;6.982;2024-03-23T15:39:34;3.97;;;1.60;;
18520;SDS011;9390;51.244;6.982;2024-03-23T15:42:05;4.22;;;1.30;;
18520;SDS011;9390;51.244;6.982;2024-03-23T15:44:37;3.00;;;1.35;;
18520;SDS011;9390;51.244;6.982;2024-03-23T15:47:08;4.20;;;1.60;;
18520;SDS011;9390;51.244;6.982;2024-03-23T15:49:40;4.68;;;1.65;;
18520;SDS011;9390;51.244;6.982;2024-03-23T15:52:11;1.50;;;1.20;;
18520;SDS011;9390;51.244;6.982;2024-03-23T15:54:42;5.22;;;1.42;;
18520;SDS011;9390;51.244;6.982;2024-03-23T15:57:14;4.53;;;1.70;;
18520;SDS011;9390;51.244;6.982;2024-03-23T15:59:45;4.68;;;1.63;;
18520;SDS011;9390;51.244;6.982;2024-03-23T16:02:17;3.30;;;1.52;;
18520;SDS011;9390;51.244;6.982;2024-03-23T16:04:49;3.85;;;1.20;;
18520;SDS011;9390;51.244;6.982;2024-03-23T16:07:20;6.50;;;1.50;;
18520;SDS011;9390;51.244;6.982;2024-03-23T16:09:51;2.20;;;1.02;;
18520;SDS011;9390;51.244;6.982;2024-03-23T16:12:22;5.28;;;1.60;;
18520;SDS011;9390;51.244;6.982;2024-03-23T16:14:53;9.55;;;1.80;;
18520;SDS011;9390;51.244;6.982;2024-03-23T16:17:24;3.20;;;1.50;;
18520;SDS011;9390;51.244;6.982;2024-03-23T16:19:56;5.15;;;1.65;;
18520;SDS011;9390;51.244;6.982;2024-03-23T16:22:27;5.43;;;1.10;;
18520;SDS011;9390;51.244;6.982;2024-03-23T16:24:58;3.50;;;1.25;;